メインページ
METAR-TAF:

METAR-TAF

空港 :

ランシング首都圏国際空港

ランシング, ミシガン州, アメリカ合衆国

緯度: 42-46-49N, 経度: 084-34-44W, 海抜: 262m

現時点の気象観測

当レポートは1時間5分前の12:53(UTC)に作成
西の風 14kt
気温 24°C
湿度 74%
気圧 1011 hPa
視程: 16.1km
晴天

METAR: KLAN 201253Z 26014KT 10SM CLR 24/19 A2986 RMK AO2 PRESRR SLP104 T02390189

時間: 09:58 (13:58 UTC)

予報

当レポートは2時間19分前の11:39(UTC)に作成
予報は20日の 12時(UTC)から 21日の 12時(UTC)まで有効
西/南西の風 12kt、最大21ktの突風を伴う
視程: 10km
高度10000ftの雲は散在している
高度25000ftの千切れ雲あり
20日の 2200時(UTC)から
西/南西の風 11kt
視程: 10km
高度2500ftの雲は散在している
高度5000ftの千切れ雲あり, 積乱雲.
近辺で激しい雷雨
21日の 0400時(UTC)から
西の風 5kt
視程: 9.7km
高度5000ftの千切れ雲あり
21日の 0700時(UTC)から
北西の風 4kt
視程: 8.0km
高度1500ftの千切れ雲あり

TAF: KLAN 201139Z 2012/2112 24012G21KT P6SM SCT100 BKN250 FM202200 24011KT P6SM VCTS SCT025 BKN050CB FM210400 26005KT 6SM BR BKN050 FM210700 31004KT 5SM BR BKN015

4,000以上の空港の気象観測と天気予報(METAR報とTAF報)

利用可能な観測所は地図上に黄色い丸と赤い丸で示す。

丸の上にカーソルを重ねると観測所名を参照できる。

次にクリックすると気象観測と天気予報を参照できる。

マップの切り替え:黒色「×」印の緑ボタンをクリックして拡大、「-」印の緑ボタンをクリックして縮小、緑色の三角印をクリックして隣りの地図に切り替え


METAR-TAF: